createdAt,value
2024-03-12T00:00:55.000Z,77.25
2024-03-12T00:01:55.000Z,76.92
2024-03-12T00:02:54.000Z,77.05
2024-03-12T00:03:54.000Z,76.89
2024-03-12T00:04:54.000Z,77.33
2024-03-12T00:05:55.000Z,77.17
2024-03-12T00:06:54.000Z,77.05
2024-03-12T00:07:54.000Z,77.74
2024-03-12T00:08:54.000Z,77.67
2024-03-12T00:09:53.000Z,77.65
2024-03-12T00:10:54.000Z,78.14
2024-03-12T00:11:54.000Z,77.58
2024-03-12T00:12:53.000Z,77.46
2024-03-12T00:13:53.000Z,77.59
2024-03-12T00:14:54.000Z,77.34
2024-03-12T00:15:54.000Z,77.21
2024-03-12T00:16:55.000Z,77.14
2024-03-12T00:17:53.000Z,77.45
2024-03-12T00:18:53.000Z,78.15
2024-03-12T00:19:55.000Z,78.65
2024-03-12T00:20:53.000Z,78.74
2024-03-12T00:21:54.000Z,78.33
2024-03-12T00:22:53.000Z,78.64
2024-03-12T00:23:53.000Z,78.26
2024-03-12T00:24:53.000Z,77.97
2024-03-12T00:25:55.000Z,78.87
2024-03-12T00:26:53.000Z,79.17
2024-03-12T00:27:56.000Z,79.57
2024-03-12T00:28:54.000Z,79.70
2024-03-12T00:29:54.000Z,79.63
2024-03-12T00:30:54.000Z,79.05
2024-03-12T00:31:54.000Z,79.24
2024-03-12T00:32:54.000Z,78.90
2024-03-12T00:33:54.000Z,78.42
2024-03-12T00:34:54.000Z,78.30
2024-03-12T00:35:54.000Z,78.13
2024-03-12T00:36:53.000Z,78.01
2024-03-12T00:37:56.000Z,77.82
2024-03-12T00:38:53.000Z,78.31
2024-03-12T00:39:54.000Z,78.79
2024-03-12T00:40:54.000Z,78.88
2024-03-12T00:41:56.000Z,78.79
2024-03-12T00:42:54.000Z,78.86
2024-03-12T00:43:54.000Z,79.12
2024-03-12T00:44:55.000Z,79.29
2024-03-12T00:45:54.000Z,79.09
2024-03-12T00:46:54.000Z,79.34
2024-03-12T00:47:54.000Z,79.36
2024-03-12T00:48:54.000Z,79.48
2024-03-12T00:49:54.000Z,79.19
2024-03-12T00:50:55.000Z,78.75
2024-03-12T00:51:54.000Z,78.95
2024-03-12T00:52:54.000Z,79.11
2024-03-12T00:53:54.000Z,79.53
2024-03-12T00:54:54.000Z,79.44
2024-03-12T00:55:54.000Z,79.46
2024-03-12T00:56:55.000Z,79.42
2024-03-12T00:57:55.000Z,79.78
2024-03-12T00:58:54.000Z,79.55
2024-03-12T00:59:54.000Z,79.42
2024-03-12T01:00:54.000Z,79.29
2024-03-12T01:01:54.000Z,79.56
2024-03-12T01:02:55.000Z,79.62
2024-03-12T01:03:54.000Z,79.57
2024-03-12T01:04:54.000Z,80.02
2024-03-12T01:05:54.000Z,80.06
2024-03-12T01:06:55.000Z,80.41
2024-03-12T01:07:55.000Z,80.90
2024-03-12T01:08:55.000Z,81.28
2024-03-12T01:09:55.000Z,81.50
2024-03-12T01:10:54.000Z,81.26
2024-03-12T01:11:54.000Z,80.52
2024-03-12T01:12:55.000Z,81.17
2024-03-12T01:13:54.000Z,80.90
2024-03-12T01:14:54.000Z,80.55
2024-03-12T01:15:54.000Z,80.18
2024-03-12T01:16:54.000Z,80.36
2024-03-12T01:17:55.000Z,80.16
2024-03-12T01:18:54.000Z,80.58
2024-03-12T01:19:54.000Z,80.26
2024-03-12T01:20:54.000Z,79.98
2024-03-12T01:21:54.000Z,80.42
2024-03-12T01:22:54.000Z,79.96
2024-03-12T01:23:54.000Z,79.74
2024-03-12T01:24:54.000Z,79.65
2024-03-12T01:25:54.000Z,79.78
2024-03-12T01:26:55.000Z,79.94
2024-03-12T01:27:55.000Z,79.61
2024-03-12T01:28:54.000Z,79.63
2024-03-12T01:29:55.000Z,79.77
2024-03-12T01:30:54.000Z,79.61
2024-03-12T01:31:55.000Z,80.08
2024-03-12T01:32:54.000Z,80.17
2024-03-12T01:33:54.000Z,79.77
2024-03-12T01:34:54.000Z,79.59
2024-03-12T01:36:05.000Z,79.89
2024-03-12T01:36:54.000Z,79.84
2024-03-12T01:37:57.000Z,80.17
2024-03-12T01:38:54.000Z,80.11
2024-03-12T01:39:54.000Z,80.16
2024-03-12T01:40:54.000Z,80.28
2024-03-12T01:41:57.000Z,80.55
2024-03-12T01:43:00.000Z,80.80
2024-03-12T01:43:55.000Z,80.91
2024-03-12T01:44:54.000Z,81.21
2024-03-12T01:45:54.000Z,81.04
2024-03-12T01:46:54.000Z,81.01
2024-03-12T01:47:55.000Z,81.35
2024-03-12T01:48:55.000Z,81.08
2024-03-12T01:49:54.000Z,81.01
2024-03-12T01:50:54.000Z,80.92
2024-03-12T01:51:54.000Z,81.05
2024-03-12T01:52:59.000Z,81.43
2024-03-12T01:53:56.000Z,81.20
2024-03-12T01:54:54.000Z,81.02
2024-03-12T01:55:54.000Z,81.02
2024-03-12T01:56:54.000Z,81.31
2024-03-12T01:57:54.000Z,81.24
2024-03-12T01:58:54.000Z,81.48
2024-03-12T01:59:54.000Z,81.22
2024-03-12T02:00:54.000Z,81.06
2024-03-12T02:01:57.000Z,81.29
2024-03-12T02:02:54.000Z,81.40
2024-03-12T02:03:54.000Z,81.24
2024-03-12T02:04:56.000Z,81.41
2024-03-12T02:05:54.000Z,81.31
2024-03-12T02:06:54.000Z,81.53
2024-03-12T02:07:54.000Z,81.44
2024-03-12T02:08:54.000Z,81.97
2024-03-12T02:09:54.000Z,81.84
2024-03-12T02:10:54.000Z,81.85
2024-03-12T02:11:54.000Z,81.85
2024-03-12T02:12:54.000Z,81.68
2024-03-12T02:13:54.000Z,81.26
2024-03-12T02:14:53.000Z,81.11
2024-03-12T02:15:53.000Z,80.88
2024-03-12T02:16:54.000Z,80.71
2024-03-12T02:17:54.000Z,80.77
2024-03-12T02:18:53.000Z,81.12
2024-03-12T02:19:54.000Z,81.30
2024-03-12T02:20:53.000Z,81.16
2024-03-12T02:21:53.000Z,80.90
2024-03-12T02:22:54.000Z,81.33
2024-03-12T02:23:53.000Z,81.35
2024-03-12T02:24:53.000Z,81.18
2024-03-12T02:25:53.000Z,81.09
2024-03-12T02:26:54.000Z,81.00
2024-03-12T02:27:55.000Z,80.76
2024-03-12T02:28:53.000Z,81.23
2024-03-12T02:29:54.000Z,81.52
2024-03-12T02:30:54.000Z,81.38
2024-03-12T02:31:53.000Z,81.82
2024-03-12T02:32:54.000Z,82.24
2024-03-12T02:33:54.000Z,82.69
2024-03-12T02:34:54.000Z,81.93
2024-03-12T02:35:54.000Z,82.50
2024-03-12T02:36:54.000Z,82.54
2024-03-12T02:37:53.000Z,82.33
2024-03-12T02:38:53.000Z,82.54
2024-03-12T02:39:54.000Z,82.95
2024-03-12T02:40:53.000Z,83.59
2024-03-12T02:41:54.000Z,83.66
2024-03-12T02:42:53.000Z,83.67
2024-03-12T02:43:54.000Z,83.95
2024-03-12T02:44:55.000Z,83.86
2024-03-12T02:45:53.000Z,84.00
2024-03-12T02:46:54.000Z,83.86
2024-03-12T02:47:54.000Z,83.47
2024-03-12T02:48:53.000Z,83.27
2024-03-12T02:49:54.000Z,82.97
2024-03-12T02:50:53.000Z,83.77
2024-03-12T02:51:54.000Z,83.63
2024-03-12T02:52:55.000Z,83.51
2024-03-12T02:53:54.000Z,83.65
2024-03-12T02:54:53.000Z,84.08
2024-03-12T02:55:53.000Z,83.73
2024-03-12T02:56:54.000Z,83.38
2024-03-12T02:57:54.000Z,83.51
2024-03-12T02:58:55.000Z,83.62
2024-03-12T02:59:53.000Z,83.32
2024-03-12T03:00:55.000Z,83.42
2024-03-12T03:01:56.000Z,83.40
2024-03-12T03:02:54.000Z,83.93
2024-03-12T03:03:54.000Z,83.76
2024-03-12T03:04:53.000Z,83.51
2024-03-12T03:05:54.000Z,83.49
2024-03-12T03:06:57.000Z,84.02
2024-03-12T03:07:54.000Z,84.41
2024-03-12T03:08:53.000Z,84.11
2024-03-12T03:09:53.000Z,83.80
2024-03-12T03:10:54.000Z,84.04
2024-03-12T03:11:55.000Z,83.64
2024-03-12T03:12:53.000Z,83.71
2024-03-12T03:13:54.000Z,83.92
2024-03-12T03:14:54.000Z,83.84
2024-03-12T03:15:54.000Z,83.94
2024-03-12T03:16:55.000Z,83.97
2024-03-12T03:17:54.000Z,84.49
2024-03-12T03:18:57.000Z,84.50
2024-03-12T03:19:54.000Z,84.89
2024-03-12T03:20:54.000Z,84.73
2024-03-12T03:21:54.000Z,84.67
2024-03-12T03:22:54.000Z,84.82
2024-03-12T03:23:54.000Z,85.05
2024-03-12T03:24:54.000Z,84.69
2024-03-12T03:25:54.000Z,84.96
2024-03-12T03:26:54.000Z,85.27
2024-03-12T03:27:54.000Z,85.46
2024-03-12T03:28:54.000Z,84.94
2024-03-12T03:29:56.000Z,84.87
2024-03-12T03:30:59.000Z,85.26
2024-03-12T03:31:55.000Z,84.98
2024-03-12T03:32:54.000Z,84.93
2024-03-12T03:33:55.000Z,85.40
2024-03-12T03:34:54.000Z,85.30
2024-03-12T03:35:54.000Z,85.47
2024-03-12T03:36:55.000Z,85.58
2024-03-12T03:37:54.000Z,84.98
2024-03-12T03:38:54.000Z,85.29
2024-03-12T03:39:54.000Z,85.12
2024-03-12T03:40:54.000Z,85.68
2024-03-12T03:41:55.000Z,85.64
2024-03-12T03:42:56.000Z,85.98
2024-03-12T03:43:54.000Z,86.43
2024-03-12T03:44:54.000Z,86.44
2024-03-12T03:45:53.000Z,86.46
2024-03-12T03:46:53.000Z,86.49
2024-03-12T03:47:53.000Z,86.31
2024-03-12T03:48:55.000Z,86.34
2024-03-12T03:49:54.000Z,86.39
2024-03-12T03:50:54.000Z,86.02
2024-03-12T03:51:53.000Z,86.50
2024-03-12T03:52:53.000Z,86.43
2024-03-12T03:53:54.000Z,86.90
2024-03-12T03:54:53.000Z,86.89
2024-03-12T03:55:54.000Z,86.76
2024-03-12T03:56:53.000Z,87.11
2024-03-12T03:57:53.000Z,86.96
2024-03-12T03:58:57.000Z,86.76
2024-03-12T03:59:55.000Z,86.55
2024-03-12T04:00:54.000Z,86.33
2024-03-12T04:01:54.000Z,86.04
2024-03-12T04:02:54.000Z,86.45
2024-03-12T04:03:56.000Z,86.36
2024-03-12T04:04:53.000Z,86.43
2024-03-12T04:05:56.000Z,86.27
2024-03-12T04:06:54.000Z,86.52
2024-03-12T04:07:54.000Z,86.21
2024-03-12T04:08:53.000Z,86.21
2024-03-12T04:09:54.000Z,86.69
2024-03-12T04:10:53.000Z,86.50
2024-03-12T04:11:53.000Z,86.56
2024-03-12T04:12:56.000Z,86.78
2024-03-12T04:13:54.000Z,86.41
2024-03-12T04:14:54.000Z,86.55
2024-03-12T04:15:55.000Z,86.85
2024-03-12T04:16:53.000Z,86.46
2024-03-12T04:17:54.000Z,86.98
2024-03-12T04:18:53.000Z,86.63
2024-03-12T04:19:54.000Z,86.50
2024-03-12T04:20:54.000Z,86.35
2024-03-12T04:21:53.000Z,86.52
2024-03-12T04:22:55.000Z,86.95
2024-03-12T04:23:54.000Z,87.07
2024-03-12T04:24:53.000Z,87.29
2024-03-12T04:25:53.000Z,87.34
2024-03-12T04:26:54.000Z,87.31
2024-03-12T04:27:55.000Z,87.13
2024-03-12T04:28:54.000Z,87.12
2024-03-12T04:29:53.000Z,86.91
2024-03-12T04:30:54.000Z,86.92
2024-03-12T04:31:54.000Z,86.59
2024-03-12T04:32:53.000Z,87.01
2024-03-12T04:33:53.000Z,87.38
2024-03-12T04:34:54.000Z,87.36
2024-03-12T04:35:54.000Z,87.32
2024-03-12T04:36:53.000Z,87.53
2024-03-12T04:37:54.000Z,87.64
2024-03-12T04:38:53.000Z,87.42
2024-03-12T04:39:53.000Z,87.19
2024-03-12T04:40:53.000Z,87.70
2024-03-12T04:41:53.000Z,87.72
2024-03-12T04:42:53.000Z,87.50
2024-03-12T04:43:53.000Z,87.44
2024-03-12T04:44:53.000Z,87.68
2024-03-12T04:45:53.000Z,87.56
2024-03-12T04:46:54.000Z,87.61
2024-03-12T04:47:54.000Z,87.21
2024-03-12T04:48:54.000Z,87.46
2024-03-12T04:49:54.000Z,87.86
2024-03-12T04:50:54.000Z,87.52
2024-03-12T04:51:55.000Z,87.83
2024-03-12T04:52:54.000Z,87.78
2024-03-12T04:53:54.000Z,87.84
2024-03-12T04:54:54.000Z,87.83
2024-03-12T04:55:54.000Z,87.86
2024-03-12T04:56:54.000Z,88.26
2024-03-12T04:57:54.000Z,88.23
2024-03-12T04:58:54.000Z,88.35
2024-03-12T04:59:54.000Z,88.34
2024-03-12T05:00:54.000Z,88.41
2024-03-12T05:01:54.000Z,88.33
2024-03-12T05:02:54.000Z,88.34
2024-03-12T05:03:54.000Z,88.40
2024-03-12T05:04:54.000Z,88.55
2024-03-12T05:05:54.000Z,88.57
2024-03-12T05:06:54.000Z,88.64
2024-03-12T05:07:54.000Z,88.74
2024-03-12T05:08:55.000Z,88.91
2024-03-12T05:09:53.000Z,89.24
2024-03-12T05:10:54.000Z,89.36
2024-03-12T05:11:54.000Z,89.41
2024-03-12T05:12:54.000Z,89.10
2024-03-12T05:13:54.000Z,89.48
2024-03-12T05:14:54.000Z,89.22
2024-03-12T05:15:54.000Z,88.54
2024-03-12T05:16:54.000Z,88.77
2024-03-12T05:17:54.000Z,89.05
2024-03-12T05:18:54.000Z,89.28
2024-03-12T05:19:54.000Z,89.29
2024-03-12T05:20:54.000Z,88.94
2024-03-12T05:21:54.000Z,89.15
2024-03-12T05:22:57.000Z,89.32
2024-03-12T05:23:54.000Z,89.22
2024-03-12T05:24:53.000Z,89.26
2024-03-12T05:25:54.000Z,89.25
2024-03-12T05:26:54.000Z,89.27
2024-03-12T05:27:54.000Z,89.23
2024-03-12T05:28:55.000Z,89.33
2024-03-12T05:29:54.000Z,89.09
2024-03-12T05:30:54.000Z,88.68
2024-03-12T05:31:53.000Z,88.83
2024-03-12T05:32:55.000Z,89.04
2024-03-12T05:33:54.000Z,89.27
2024-03-12T05:34:58.000Z,89.54
2024-03-12T05:35:55.000Z,89.38
2024-03-12T05:37:03.000Z,89.29
2024-03-12T05:37:58.000Z,88.92
2024-03-12T05:38:58.000Z,89.32
2024-03-12T05:39:58.000Z,89.34
2024-03-12T05:41:00.000Z,89.58
2024-03-12T05:41:58.000Z,89.17
2024-03-12T05:42:58.000Z,89.21
2024-03-12T05:43:58.000Z,89.21
2024-03-12T05:44:58.000Z,89.13
2024-03-12T05:45:59.000Z,89.16
2024-03-12T05:46:58.000Z,89.34
2024-03-12T05:47:58.000Z,89.73
2024-03-12T05:48:53.000Z,89.61
2024-03-12T05:49:54.000Z,89.10
2024-03-12T05:50:55.000Z,89.07
2024-03-12T05:51:55.000Z,89.29
2024-03-12T05:52:54.000Z,89.22
2024-03-12T05:53:53.000Z,89.69
2024-03-12T05:54:54.000Z,89.84
2024-03-12T05:55:53.000Z,89.88
2024-03-12T05:56:53.000Z,90.08
2024-03-12T05:57:54.000Z,90.19
2024-03-12T05:58:54.000Z,90.14
2024-03-12T05:59:53.000Z,89.97
2024-03-12T06:00:53.000Z,89.78
2024-03-12T06:01:54.000Z,89.94
2024-03-12T06:02:53.000Z,90.00
2024-03-12T06:03:53.000Z,89.74
2024-03-12T06:04:54.000Z,89.68
2024-03-12T06:05:54.000Z,89.93
2024-03-12T06:06:53.000Z,90.03
2024-03-12T06:07:53.000Z,90.17
2024-03-12T06:08:54.000Z,90.60
2024-03-12T06:09:53.000Z,90.99
2024-03-12T06:10:53.000Z,91.01
2024-03-12T06:11:55.000Z,90.98
2024-03-12T06:12:53.000Z,90.65
2024-03-12T06:13:54.000Z,90.44
2024-03-12T06:14:53.000Z,90.51
2024-03-12T06:15:53.000Z,90.37
2024-03-12T06:16:54.000Z,90.16
2024-03-12T06:17:53.000Z,90.52
2024-03-12T06:18:54.000Z,90.61
2024-03-12T06:19:53.000Z,91.01
2024-03-12T06:20:53.000Z,91.39
2024-03-12T06:21:53.000Z,91.29
2024-03-12T06:22:54.000Z,91.25
2024-03-12T06:23:53.000Z,91.31
2024-03-12T06:24:54.000Z,91.27
2024-03-12T06:25:53.000Z,91.51
2024-03-12T06:26:54.000Z,91.67
2024-03-12T06:27:53.000Z,91.67
2024-03-12T06:28:53.000Z,91.67
2024-03-12T06:29:54.000Z,91.75
2024-03-12T06:30:54.000Z,91.71
2024-03-12T06:31:54.000Z,91.99
2024-03-12T06:32:53.000Z,91.83
2024-03-12T06:33:54.000Z,91.63
2024-03-12T06:34:53.000Z,91.79
2024-03-12T06:35:53.000Z,91.92
2024-03-12T06:36:57.000Z,91.86
2024-03-12T06:37:54.000Z,91.61
2024-03-12T06:38:53.000Z,91.69
2024-03-12T06:39:54.000Z,92.00
2024-03-12T06:40:53.000Z,92.10
2024-03-12T06:41:53.000Z,91.84
2024-03-12T06:42:55.000Z,91.50
2024-03-12T06:43:53.000Z,91.53
2024-03-12T06:44:55.000Z,91.75
2024-03-12T06:45:53.000Z,91.39
2024-03-12T06:46:54.000Z,91.74
2024-03-12T06:47:55.000Z,91.93
2024-03-12T06:48:53.000Z,92.43
2024-03-12T06:49:53.000Z,92.39
2024-03-12T06:50:53.000Z,92.45
2024-03-12T06:51:53.000Z,92.68
2024-03-12T06:52:54.000Z,92.84
2024-03-12T06:53:53.000Z,92.49
2024-03-12T06:54:53.000Z,92.57
2024-03-12T06:55:53.000Z,92.61
2024-03-12T06:56:53.000Z,92.79
2024-03-12T06:57:58.000Z,92.85
2024-03-12T06:58:53.000Z,92.88
2024-03-12T06:59:55.000Z,93.02
2024-03-12T07:00:54.000Z,93.53
2024-03-12T07:01:54.000Z,93.72
2024-03-12T07:02:53.000Z,93.57
2024-03-12T07:03:56.000Z,93.87
2024-03-12T07:04:54.000Z,93.58
2024-03-12T07:05:55.000Z,93.28
2024-03-12T07:06:54.000Z,93.33
2024-03-12T07:07:53.000Z,93.65
2024-03-12T07:09:00.000Z,94.55
2024-03-12T07:09:54.000Z,93.95
2024-03-12T07:10:54.000Z,94.10
2024-03-12T07:11:58.000Z,94.28
2024-03-12T07:12:55.000Z,94.40
2024-03-12T07:14:01.000Z,94.77
2024-03-12T07:14:56.000Z,94.09
2024-03-12T07:15:53.000Z,94.14
2024-03-12T07:16:54.000Z,94.25
2024-03-12T07:17:53.000Z,94.15
2024-03-12T07:18:54.000Z,94.33
2024-03-12T07:19:53.000Z,94.02
2024-03-12T07:20:54.000Z,94.26
2024-03-12T07:21:54.000Z,94.83
2024-03-12T07:22:53.000Z,94.89
2024-03-12T07:23:53.000Z,95.00
2024-03-12T07:24:54.000Z,95.17
2024-03-12T07:25:55.000Z,95.29
2024-03-12T07:26:53.000Z,95.28
2024-03-12T07:27:56.000Z,95.11
2024-03-12T07:28:53.000Z,95.06
2024-03-12T07:29:53.000Z,94.95
2024-03-12T07:30:53.000Z,95.08
2024-03-12T07:31:53.000Z,95.00
2024-03-12T07:32:53.000Z,94.98
2024-03-12T07:33:54.000Z,95.31
2024-03-12T07:34:53.000Z,95.41
2024-03-12T07:35:53.000Z,95.45
2024-03-12T07:36:53.000Z,95.42
2024-03-12T07:37:53.000Z,95.96
2024-03-12T07:38:53.000Z,95.81
2024-03-12T07:39:53.000Z,95.97
2024-03-12T07:40:53.000Z,95.82
2024-03-12T07:41:54.000Z,95.49
2024-03-12T07:42:53.000Z,95.88
2024-03-12T07:43:53.000Z,96.25
2024-03-12T07:44:53.000Z,96.26
2024-03-12T07:45:53.000Z,96.11
2024-03-12T07:46:54.000Z,96.04
2024-03-12T07:47:53.000Z,96.02
2024-03-12T07:48:54.000Z,96.16
2024-03-12T07:49:54.000Z,96.04
2024-03-12T07:50:55.000Z,96.23
2024-03-12T07:51:53.000Z,96.22
2024-03-12T07:52:55.000Z,96.46
2024-03-12T07:53:54.000Z,96.34
2024-03-12T07:54:53.000Z,96.25
2024-03-12T07:55:56.000Z,96.32
2024-03-12T07:56:54.000Z,96.01
2024-03-12T07:57:55.000Z,96.34
2024-03-12T07:58:56.000Z,96.37
2024-03-12T07:59:53.000Z,96.30
2024-03-12T08:00:54.000Z,96.54
2024-03-12T08:01:54.000Z,96.58
2024-03-12T08:02:54.000Z,96.44
2024-03-12T08:03:55.000Z,96.51
2024-03-12T08:04:53.000Z,96.48
2024-03-12T08:05:53.000Z,96.35
2024-03-12T08:06:54.000Z,96.29
2024-03-12T08:07:54.000Z,95.93
2024-03-12T08:08:53.000Z,95.92
2024-03-12T08:09:53.000Z,96.23
2024-03-12T08:10:54.000Z,97.01
2024-03-12T08:11:53.000Z,97.32
2024-03-12T08:12:53.000Z,96.95
2024-03-12T08:13:54.000Z,96.67
2024-03-12T08:14:53.000Z,96.36
2024-03-12T08:15:53.000Z,96.49
2024-03-12T08:16:54.000Z,96.60
2024-03-12T08:17:54.000Z,97.01
2024-03-12T08:18:53.000Z,97.13
2024-03-12T08:19:53.000Z,97.06
2024-03-12T08:20:53.000Z,96.94
2024-03-12T08:21:53.000Z,97.24
2024-03-12T08:22:53.000Z,97.25
2024-03-12T08:23:56.000Z,97.27
2024-03-12T08:24:54.000Z,97.14
2024-03-12T08:25:53.000Z,97.07
2024-03-12T08:26:54.000Z,97.20
2024-03-12T08:27:53.000Z,97.05
2024-03-12T08:28:54.000Z,96.61
2024-03-12T08:29:56.000Z,96.40
2024-03-12T08:30:53.000Z,96.43
2024-03-12T08:31:53.000Z,96.41
2024-03-12T08:32:55.000Z,96.47
2024-03-12T08:33:53.000Z,96.54
2024-03-12T08:34:53.000Z,96.67
2024-03-12T08:35:53.000Z,96.88
2024-03-12T08:36:55.000Z,97.15
2024-03-12T08:37:53.000Z,96.99
2024-03-12T08:38:54.000Z,96.94
2024-03-12T08:39:54.000Z,96.70
2024-03-12T08:40:55.000Z,96.78
2024-03-12T08:41:54.000Z,97.25
2024-03-12T08:42:54.000Z,97.24
2024-03-12T08:43:53.000Z,97.33
2024-03-12T08:44:54.000Z,97.40
2024-03-12T08:45:53.000Z,97.61
2024-03-12T08:46:53.000Z,97.11
2024-03-12T08:47:53.000Z,97.41
2024-03-12T08:48:53.000Z,97.05
2024-03-12T08:49:53.000Z,97.77
2024-03-12T08:50:54.000Z,97.84
2024-03-12T08:51:54.000Z,97.89
2024-03-12T08:52:53.000Z,98.01
2024-03-12T08:53:55.000Z,98.38
2024-03-12T08:54:54.000Z,98.69
2024-03-12T08:55:53.000Z,98.33
2024-03-12T08:56:53.000Z,98.18
2024-03-12T08:57:53.000Z,97.77
2024-03-12T08:58:53.000Z,97.92
2024-03-12T08:59:54.000Z,98.07
2024-03-12T09:00:55.000Z,98.27
2024-03-12T09:01:59.000Z,98.11
2024-03-12T09:02:55.000Z,98.03
2024-03-12T09:03:53.000Z,97.91
2024-03-12T09:04:53.000Z,97.94
2024-03-12T09:05:53.000Z,97.77
2024-03-12T09:06:53.000Z,97.90
2024-03-12T09:07:53.000Z,97.83
2024-03-12T09:08:54.000Z,97.85
2024-03-12T09:09:54.000Z,97.50
2024-03-12T09:10:53.000Z,97.53
2024-03-12T09:11:58.000Z,97.67
2024-03-12T09:12:53.000Z,97.62
2024-03-12T09:13:54.000Z,97.82
2024-03-12T09:14:54.000Z,97.78
2024-03-12T09:15:55.000Z,97.30
2024-03-12T09:16:54.000Z,97.09
2024-03-12T09:17:54.000Z,97.27
2024-03-12T09:18:53.000Z,97.10
2024-03-12T09:19:53.000Z,96.63
2024-03-12T09:20:55.000Z,96.50
2024-03-12T09:21:54.000Z,96.47
2024-03-12T09:22:55.000Z,96.39
2024-03-12T09:23:55.000Z,96.59
2024-03-12T09:24:53.000Z,95.92
2024-03-12T09:25:54.000Z,95.91
2024-03-12T09:26:54.000Z,95.94
2024-03-12T09:27:54.000Z,95.85
2024-03-12T09:28:53.000Z,96.07
2024-03-12T09:29:56.000Z,95.99
2024-03-12T09:30:54.000Z,95.94
2024-03-12T09:31:54.000Z,95.94
2024-03-12T09:32:53.000Z,95.98
2024-03-12T09:33:55.000Z,96.15
2024-03-12T09:34:54.000Z,96.22
2024-03-12T09:35:54.000Z,96.39
2024-03-12T09:36:54.000Z,96.24
2024-03-12T09:37:53.000Z,96.18
2024-03-12T09:38:54.000Z,96.29
2024-03-12T09:39:54.000Z,96.61
2024-03-12T09:40:55.000Z,96.65
2024-03-12T09:41:54.000Z,96.55
2024-03-12T09:42:59.000Z,96.21
2024-03-12T09:43:54.000Z,96.23
2024-03-12T09:44:54.000Z,96.10
2024-03-12T09:45:55.000Z,95.93
2024-03-12T09:46:54.000Z,96.05
2024-03-12T09:47:54.000Z,96.11
2024-03-12T09:48:54.000Z,96.19
2024-03-12T09:49:55.000Z,96.44
2024-03-12T09:50:56.000Z,96.34
2024-03-12T09:51:53.000Z,96.39
2024-03-12T09:52:54.000Z,96.17
2024-03-12T09:53:53.000Z,95.83
2024-03-12T09:54:53.000Z,95.87
2024-03-12T09:55:53.000Z,95.85
2024-03-12T09:56:54.000Z,95.77
2024-03-12T09:57:54.000Z,95.77
2024-03-12T09:58:53.000Z,95.69
2024-03-12T09:59:53.000Z,95.50
2024-03-12T10:00:53.000Z,95.73
2024-03-12T10:01:53.000Z,95.09
2024-03-12T10:02:54.000Z,94.87
2024-03-12T10:03:53.000Z,94.72
2024-03-12T10:04:53.000Z,94.68
2024-03-12T10:05:53.000Z,94.87
2024-03-12T10:06:54.000Z,94.67
2024-03-12T10:08:03.000Z,94.29
2024-03-12T10:08:55.000Z,94.28
2024-03-12T10:09:53.000Z,94.24
2024-03-12T10:10:53.000Z,94.31
2024-03-12T10:11:54.000Z,94.26
2024-03-12T10:12:53.000Z,93.67
2024-03-12T10:13:56.000Z,93.42
2024-03-12T10:14:53.000Z,93.14
2024-03-12T10:15:57.000Z,93.36
2024-03-12T10:17:08.000Z,93.28
2024-03-12T10:17:57.000Z,93.11
2024-03-12T10:19:03.000Z,92.07
2024-03-12T10:20:02.000Z,91.44
2024-03-12T10:21:00.000Z,91.23
2024-03-12T10:22:06.000Z,91.43
2024-03-12T10:23:03.000Z,91.33
2024-03-12T10:24:10.000Z,91.13
2024-03-12T10:25:05.000Z,90.99
2024-03-12T10:26:07.000Z,90.78
2024-03-12T10:27:00.000Z,90.68
2024-03-12T10:27:53.000Z,90.52
2024-03-12T10:28:54.000Z,90.37
2024-03-12T10:29:53.000Z,90.54
2024-03-12T10:31:03.000Z,90.42
2024-03-12T10:31:53.000Z,90.45
2024-03-12T10:32:54.000Z,90.23
2024-03-12T10:34:05.000Z,89.84
2024-03-12T10:34:53.000Z,89.62
2024-03-12T10:35:53.000Z,89.51
2024-03-12T10:36:53.000Z,89.14
2024-03-12T10:37:53.000Z,88.98
2024-03-12T10:38:53.000Z,89.18
2024-03-12T10:39:53.000Z,89.22
2024-03-12T10:40:55.000Z,88.95
2024-03-12T10:41:55.000Z,88.71
2024-03-12T10:42:55.000Z,88.49
2024-03-12T10:44:02.000Z,88.23
2024-03-12T10:44:56.000Z,88.13
2024-03-12T10:45:56.000Z,88.45
2024-03-12T10:46:54.000Z,88.49
2024-03-12T10:47:55.000Z,88.44
2024-03-12T10:48:53.000Z,88.67
2024-03-12T10:49:54.000Z,88.67
2024-03-12T10:50:55.000Z,88.56
2024-03-12T10:51:55.000Z,87.90
2024-03-12T10:52:56.000Z,87.78
2024-03-12T10:53:53.000Z,87.79
2024-03-12T10:54:53.000Z,87.77
2024-03-12T10:55:53.000Z,87.84
2024-03-12T10:56:53.000Z,87.79
2024-03-12T10:57:53.000Z,87.95
2024-03-12T10:58:53.000Z,87.46
2024-03-12T10:59:53.000Z,86.85
2024-03-12T11:00:53.000Z,86.69
2024-03-12T11:01:54.000Z,86.66
2024-03-12T11:02:53.000Z,86.54
2024-03-12T11:03:58.000Z,86.51
2024-03-12T11:04:54.000Z,86.59
2024-03-12T11:05:56.000Z,86.65
2024-03-12T11:06:53.000Z,86.84
2024-03-12T11:07:55.000Z,86.80
2024-03-12T11:08:55.000Z,86.75
2024-03-12T11:09:53.000Z,86.82
2024-03-12T11:10:54.000Z,86.52
2024-03-12T11:11:53.000Z,86.56
2024-03-12T11:12:54.000Z,86.78
2024-03-12T11:13:53.000Z,87.00
2024-03-12T11:14:54.000Z,87.33
2024-03-12T11:15:56.000Z,86.57
2024-03-12T11:16:54.000Z,86.24
2024-03-12T11:17:53.000Z,85.73
2024-03-12T11:18:53.000Z,85.67
2024-03-12T11:19:56.000Z,85.71
2024-03-12T11:20:53.000Z,85.43
2024-03-12T11:21:58.000Z,85.40
2024-03-12T11:22:57.000Z,85.41
2024-03-12T11:23:53.000Z,85.62
2024-03-12T11:24:53.000Z,85.69
2024-03-12T11:25:55.000Z,85.94
2024-03-12T11:26:57.000Z,86.17
2024-03-12T11:28:07.000Z,86.16
2024-03-12T11:28:54.000Z,86.52
2024-03-12T11:30:04.000Z,86.74
2024-03-12T11:31:01.000Z,86.85
2024-03-12T11:31:54.000Z,87.04
2024-03-12T11:32:56.000Z,86.97
2024-03-12T11:33:53.000Z,86.96
2024-03-12T11:34:53.000Z,86.89
2024-03-12T11:35:53.000Z,86.92
2024-03-12T11:37:11.000Z,87.17
2024-03-12T11:38:01.000Z,87.31
2024-03-12T11:38:57.000Z,87.36
2024-03-12T11:40:03.000Z,87.64
2024-03-12T11:40:53.000Z,87.67
2024-03-12T11:42:13.000Z,87.85
2024-03-12T11:42:56.000Z,88.03
2024-03-12T11:43:53.000Z,88.04
2024-03-12T11:44:54.000Z,87.93
2024-03-12T11:45:53.000Z,88.16
2024-03-12T11:46:53.000Z,88.61
2024-03-12T11:47:54.000Z,88.63
2024-03-12T11:48:53.000Z,89.04
2024-03-12T11:49:54.000Z,89.05
2024-03-12T11:50:59.000Z,89.50
2024-03-12T11:51:53.000Z,90.14
2024-03-12T11:53:09.000Z,90.59
2024-03-12T11:53:53.000Z,91.00
2024-03-12T11:54:53.000Z,90.98
2024-03-12T11:56:06.000Z,91.57
2024-03-12T11:56:53.000Z,91.83
2024-03-12T11:57:54.000Z,91.74
2024-03-12T11:58:54.000Z,91.40
2024-03-12T11:59:57.000Z,91.49
2024-03-12T12:00:53.000Z,91.12
2024-03-12T12:01:54.000Z,91.15
2024-03-12T12:02:54.000Z,91.18
2024-03-12T12:03:58.000Z,91.19
2024-03-12T12:04:55.000Z,91.00
2024-03-12T12:05:53.000Z,91.07
2024-03-12T12:06:56.000Z,90.59
2024-03-12T12:07:53.000Z,90.25
2024-03-12T12:08:53.000Z,90.39
2024-03-12T12:09:53.000Z,90.22
2024-03-12T12:11:04.000Z,89.74
2024-03-12T12:11:53.000Z,89.68
2024-03-12T12:12:53.000Z,89.65
2024-03-12T12:13:55.000Z,89.48
2024-03-12T12:14:53.000Z,89.13
2024-03-12T12:15:54.000Z,88.90
2024-03-12T12:16:56.000Z,88.89
2024-03-12T12:18:06.000Z,88.88
2024-03-12T12:19:01.000Z,88.90
2024-03-12T12:20:10.000Z,88.93
2024-03-12T12:20:55.000Z,88.92
2024-03-12T12:21:54.000Z,88.98
2024-03-12T12:22:53.000Z,88.57
2024-03-12T12:23:54.000Z,88.42
2024-03-12T12:24:53.000Z,88.37
2024-03-12T12:25:54.000Z,88.41
2024-03-12T12:26:55.000Z,87.75
2024-03-12T12:27:54.000Z,87.48
2024-03-12T12:28:54.000Z,87.33
2024-03-12T12:29:54.000Z,87.31
2024-03-12T12:30:56.000Z,87.30
2024-03-12T12:31:54.000Z,87.39
2024-03-12T12:32:54.000Z,87.42
2024-03-12T12:33:59.000Z,87.43
2024-03-12T12:34:53.000Z,87.42
2024-03-12T12:35:56.000Z,87.35
2024-03-12T12:36:54.000Z,87.14
2024-03-12T12:37:54.000Z,87.18
2024-03-12T12:38:55.000Z,86.97
2024-03-12T12:39:54.000Z,86.77
2024-03-12T12:40:53.000Z,86.59
2024-03-12T12:41:56.000Z,86.68
2024-03-12T12:42:53.000Z,87.43
2024-03-12T12:43:53.000Z,88.28
2024-03-12T12:44:53.000Z,88.16
2024-03-12T12:45:54.000Z,88.41
2024-03-12T12:46:54.000Z,89.77
2024-03-12T12:47:53.000Z,89.70
2024-03-12T12:48:58.000Z,89.94
2024-03-12T12:49:54.000Z,90.43
2024-03-12T12:50:55.000Z,90.58
2024-03-12T12:51:54.000Z,90.18
2024-03-12T12:52:57.000Z,90.86